createdAt,value
2022-12-16T00:01:35.455Z,19.00
2022-12-16T00:04:03.123Z,20.80
2022-12-16T00:06:33.983Z,18.20
2022-12-16T00:09:02.598Z,18.10
2022-12-16T00:11:33.309Z,18.80
2022-12-16T00:14:01.990Z,17.70
2022-12-16T00:16:30.106Z,17.90
2022-12-16T00:18:57.829Z,18.40
2022-12-16T00:21:29.941Z,17.70
2022-12-16T00:23:58.884Z,17.70
2022-12-16T00:26:26.585Z,17.60
2022-12-16T00:28:54.041Z,17.60
2022-12-16T00:31:22.062Z,18.10
2022-12-16T00:33:52.649Z,17.70
2022-12-16T00:36:20.933Z,15.10
2022-12-16T00:38:49.133Z,18.30
2022-12-16T00:41:17.686Z,16.90
2022-12-16T00:43:44.652Z,18.10
2022-12-16T00:46:11.921Z,16.50
2022-12-16T00:48:39.031Z,16.90
2022-12-16T00:51:13.410Z,18.00
2022-12-16T00:53:40.377Z,17.10
2022-12-16T00:56:23.030Z,16.70
2022-12-16T00:58:52.859Z,16.00
2022-12-16T01:01:23.921Z,16.90
2022-12-16T01:04:14.231Z,16.00
2022-12-16T01:06:45.428Z,15.20
2022-12-16T01:09:22.777Z,15.90
2022-12-16T01:12:05.439Z,16.20
2022-12-16T01:14:35.492Z,16.60
2022-12-16T01:17:02.418Z,15.70
2022-12-16T01:19:29.416Z,15.70
2022-12-16T01:21:56.844Z,15.20
2022-12-16T01:24:24.905Z,15.60
2022-12-16T01:26:52.249Z,15.70
2022-12-16T01:29:21.201Z,15.80
2022-12-16T01:31:48.275Z,14.90
2022-12-16T01:34:18.027Z,15.30
2022-12-16T01:36:46.353Z,14.50
2022-12-16T01:39:13.680Z,15.60
2022-12-16T01:41:41.667Z,15.90
2022-12-16T01:44:17.397Z,14.90
2022-12-16T01:46:57.523Z,13.90
2022-12-16T01:49:34.553Z,14.20
2022-12-16T01:52:06.599Z,14.60
2022-12-16T01:55:02.477Z,13.30
2022-12-16T01:57:56.649Z,14.00
2022-12-16T02:00:25.823Z,14.20
2022-12-16T02:02:56.701Z,13.60
2022-12-16T02:05:25.829Z,13.60
2022-12-16T02:07:59.672Z,13.70
2022-12-16T02:10:44.390Z,14.10
2022-12-16T02:13:36.187Z,13.70
2022-12-16T02:16:19.602Z,13.80
2022-12-16T02:19:14.582Z,13.50
2022-12-16T02:21:45.869Z,13.00
2022-12-16T02:24:20.882Z,13.60
2022-12-16T02:26:57.178Z,12.20
2022-12-16T02:29:47.364Z,12.50
2022-12-16T02:32:51.537Z,13.40
2022-12-16T02:39:31.492Z,12.20
2022-12-16T02:43:06.776Z,11.90
2022-12-16T02:45:39.251Z,11.00
2022-12-16T02:48:12.272Z,12.00
2022-12-16T02:50:45.625Z,11.70
2022-12-16T02:53:19.018Z,11.80
2022-12-16T02:56:13.500Z,12.40
2022-12-16T02:58:58.042Z,11.10
2022-12-16T03:01:28.600Z,12.30
2022-12-16T03:04:19.078Z,12.80
2022-12-16T03:06:49.507Z,12.30
2022-12-16T03:09:26.003Z,11.40
2022-12-16T03:11:58.045Z,11.50
2022-12-16T03:14:31.552Z,10.70
2022-12-16T03:16:59.627Z,11.40
2022-12-16T03:19:37.375Z,11.40
2022-12-16T03:22:19.393Z,11.40
2022-12-16T03:24:47.161Z,10.70
2022-12-16T03:27:20.932Z,11.40
2022-12-16T03:29:59.316Z,11.30
2022-12-16T03:32:44.756Z,11.20
2022-12-16T03:35:30.704Z,11.20
2022-12-16T03:38:00.573Z,10.70
2022-12-16T03:40:28.935Z,11.00
2022-12-16T03:42:59.136Z,10.60
2022-12-16T03:45:31.169Z,10.50
2022-12-16T03:48:01.856Z,10.50
2022-12-16T03:50:33.559Z,10.30
2022-12-16T03:53:01.381Z,10.40
2022-12-16T03:55:32.711Z,11.10
2022-12-16T03:58:01.357Z,10.40
2022-12-16T04:00:28.391Z,10.20
2022-12-16T04:02:58.690Z,10.50
2022-12-16T04:05:28.604Z,9.60
2022-12-16T04:08:01.881Z,10.40
2022-12-16T04:10:48.127Z,9.70
2022-12-16T04:13:36.602Z,9.70
2022-12-16T04:16:22.662Z,9.30
2022-12-16T04:19:08.692Z,9.40
2022-12-16T04:21:55.755Z,9.70
2022-12-16T04:24:28.430Z,9.80
2022-12-16T04:27:15.910Z,9.70
2022-12-16T04:30:03.189Z,9.70
2022-12-16T04:32:51.908Z,9.20
2022-12-16T04:35:37.989Z,9.30
2022-12-16T04:41:48.649Z,9.00
2022-12-16T04:44:36.958Z,9.30
2022-12-16T04:47:26.388Z,9.40
2022-12-16T04:50:11.900Z,9.30
2022-12-16T04:52:57.926Z,9.30
2022-12-16T04:55:43.407Z,8.20
2022-12-16T04:58:33.854Z,7.90
2022-12-16T05:01:20.177Z,8.60
2022-12-16T05:04:09.648Z,8.50
2022-12-16T05:07:03.152Z,7.90
2022-12-16T05:09:49.229Z,8.80
2022-12-16T05:12:34.933Z,8.30
2022-12-16T05:15:20.578Z,8.00
2022-12-16T05:18:06.379Z,8.40
2022-12-16T05:20:52.174Z,8.20
2022-12-16T05:23:37.568Z,8.60
2022-12-16T05:26:23.282Z,8.00
2022-12-16T05:29:10.051Z,8.50
2022-12-16T05:31:57.824Z,8.50
2022-12-16T05:34:43.959Z,8.30
2022-12-16T05:37:30.224Z,8.30
2022-12-16T05:40:15.772Z,8.10
2022-12-16T05:43:10.851Z,9.10
2022-12-16T05:46:00.560Z,8.40
2022-12-16T05:48:47.991Z,8.40
2022-12-16T05:51:33.693Z,7.70
2022-12-16T05:54:19.375Z,8.20
2022-12-16T05:57:05.037Z,8.00
2022-12-16T05:59:50.685Z,8.10
2022-12-16T06:02:36.534Z,7.90
2022-12-16T06:05:22.281Z,8.00
2022-12-16T06:08:11.619Z,8.10
2022-12-16T06:10:57.921Z,7.50
2022-12-16T06:13:43.871Z,8.10
2022-12-16T06:16:29.839Z,7.90
2022-12-16T06:19:15.158Z,7.90
2022-12-16T06:22:01.120Z,7.60
2022-12-16T06:24:46.660Z,7.50
2022-12-16T06:27:32.731Z,7.60
2022-12-16T06:30:18.541Z,7.40
2022-12-16T06:33:04.384Z,7.30
2022-12-16T06:35:49.971Z,7.30
2022-12-16T06:38:36.636Z,7.40
2022-12-16T06:41:22.366Z,7.00
2022-12-16T06:44:09.462Z,7.40
2022-12-16T06:46:55.322Z,7.40
2022-12-16T06:49:41.977Z,6.80
2022-12-16T06:52:27.650Z,7.20
2022-12-16T06:55:13.405Z,7.10
2022-12-16T06:57:59.236Z,7.50
2022-12-16T07:00:45.309Z,7.50
2022-12-16T07:03:35.586Z,7.30
2022-12-16T07:06:24.081Z,7.10
2022-12-16T07:09:10.943Z,6.90
2022-12-16T07:11:56.784Z,7.10
2022-12-16T07:14:42.706Z,7.20
2022-12-16T07:24:51.912Z,6.80
2022-12-16T07:27:37.968Z,7.40
2022-12-16T07:30:23.716Z,6.40
2022-12-16T07:33:09.391Z,6.60
2022-12-16T07:35:55.307Z,7.00
2022-12-16T07:38:41.831Z,7.00
2022-12-16T07:41:27.444Z,6.50
2022-12-16T07:44:15.881Z,6.20
2022-12-16T07:47:02.541Z,6.70
2022-12-16T07:49:52.615Z,5.90
2022-12-16T07:52:41.222Z,6.20
2022-12-16T07:55:31.548Z,5.70
2022-12-16T07:58:20.935Z,6.40
2022-12-16T08:01:09.564Z,6.30
2022-12-16T08:03:56.202Z,6.60
2022-12-16T08:06:44.729Z,6.70
2022-12-16T08:09:30.439Z,6.50
2022-12-16T08:12:16.375Z,6.20
2022-12-16T08:15:02.467Z,6.50
2022-12-16T08:17:49.415Z,6.30
2022-12-16T08:20:36.077Z,6.00
2022-12-16T08:23:21.815Z,5.90
2022-12-16T08:26:07.346Z,6.10
2022-12-16T08:28:53.000Z,6.40
2022-12-16T08:31:38.521Z,6.00
2022-12-16T08:34:26.196Z,6.20
2022-12-16T08:37:11.924Z,5.80
2022-12-16T08:40:25.584Z,5.60
2022-12-16T08:43:07.843Z,5.80
2022-12-16T08:45:57.085Z,5.90
2022-12-16T08:48:49.578Z,6.00
2022-12-16T08:51:45.419Z,5.90
2022-12-16T08:54:36.370Z,5.90
2022-12-16T08:58:32.935Z,5.60
2022-12-16T09:02:33.258Z,5.00
2022-12-16T09:08:20.152Z,5.70
2022-12-16T09:11:12.827Z,5.30
2022-12-16T09:13:58.239Z,5.10
2022-12-16T09:16:43.905Z,5.50
2022-12-16T09:19:31.443Z,5.70
2022-12-16T09:22:17.185Z,4.50
2022-12-16T09:25:03.006Z,4.90
2022-12-16T09:27:48.858Z,5.50
2022-12-16T09:30:35.470Z,5.10
2022-12-16T09:33:22.097Z,5.10
2022-12-16T09:36:08.192Z,5.30
2022-12-16T09:38:53.781Z,5.10
2022-12-16T09:42:15.719Z,4.80
2022-12-16T09:45:04.531Z,4.60
2022-12-16T09:47:51.610Z,4.80
2022-12-16T09:50:50.450Z,5.00
2022-12-16T09:56:52.264Z,4.90
2022-12-16T09:59:57.715Z,5.20
2022-12-16T10:02:52.341Z,5.10
2022-12-16T10:05:49.083Z,4.80
2022-12-16T10:08:47.043Z,4.70
2022-12-16T10:11:54.680Z,4.80
2022-12-16T10:14:53.146Z,5.20
2022-12-16T10:17:43.567Z,4.70
2022-12-16T10:20:51.601Z,4.70
2022-12-16T10:23:51.881Z,5.00
2022-12-16T10:26:47.430Z,4.50
2022-12-16T10:29:43.497Z,4.60
2022-12-16T10:32:38.468Z,4.60
2022-12-16T10:35:49.473Z,4.90
2022-12-16T10:38:56.464Z,4.90
2022-12-16T10:41:46.835Z,4.30
2022-12-16T10:44:38.779Z,4.60
2022-12-16T10:47:24.491Z,4.40
2022-12-16T10:50:13.828Z,4.20
2022-12-16T10:53:14.500Z,4.30
2022-12-16T10:56:06.205Z,4.10
2022-12-16T10:59:09.723Z,4.40
2022-12-16T11:01:55.652Z,4.40
2022-12-16T11:04:55.561Z,4.30
2022-12-16T11:07:54.132Z,4.00
2022-12-16T11:10:54.217Z,4.20
2022-12-16T11:13:53.669Z,4.50
2022-12-16T11:16:43.347Z,4.50
2022-12-16T11:19:42.107Z,4.10
2022-12-16T11:22:33.486Z,4.30
2022-12-16T11:25:39.739Z,4.10
2022-12-16T11:28:36.113Z,3.90
2022-12-16T11:34:53.727Z,4.00
2022-12-16T11:38:25.180Z,3.80
2022-12-16T11:44:41.519Z,3.90
2022-12-16T11:48:12.770Z,4.00
2022-12-16T11:51:12.080Z,4.40
2022-12-16T11:54:02.189Z,4.00
2022-12-16T11:56:55.871Z,4.00
2022-12-16T12:00:19.258Z,4.00
2022-12-16T12:03:32.971Z,4.10
2022-12-16T12:07:01.363Z,4.10
2022-12-16T12:09:47.916Z,3.90
2022-12-16T12:12:49.955Z,3.90
2022-12-16T12:15:49.699Z,3.40
2022-12-16T12:19:13.499Z,3.20
2022-12-16T12:22:11.911Z,3.50
2022-12-16T12:25:17.690Z,3.80
2022-12-16T12:28:37.143Z,3.50
2022-12-16T12:31:53.688Z,3.80
2022-12-16T12:35:12.500Z,3.50
2022-12-16T12:38:17.312Z,3.70
2022-12-16T12:41:14.054Z,3.80
2022-12-16T12:44:36.642Z,3.40
2022-12-16T12:47:36.758Z,4.20
2022-12-16T12:50:28.159Z,3.60
2022-12-16T12:53:37.631Z,3.30
2022-12-16T12:57:00.846Z,3.60
2022-12-16T13:00:22.387Z,3.30
2022-12-16T13:03:17.217Z,3.70
2022-12-16T13:06:07.147Z,3.60
2022-12-16T13:09:10.144Z,3.60
2022-12-16T13:11:56.958Z,3.40
2022-12-16T13:14:51.689Z,3.70
2022-12-16T13:17:40.207Z,3.70
2022-12-16T13:20:53.598Z,3.50
2022-12-16T13:23:50.695Z,3.70
2022-12-16T13:26:40.890Z,3.60
2022-12-16T13:29:49.598Z,3.50
2022-12-16T13:32:46.193Z,3.10
2022-12-16T13:35:32.594Z,3.50
2022-12-16T13:38:23.387Z,3.00
2022-12-16T13:41:12.664Z,3.30
2022-12-16T13:44:11.723Z,3.40
2022-12-16T13:47:18.012Z,3.20
2022-12-16T13:50:06.997Z,3.50
2022-12-16T13:53:15.398Z,3.50
2022-12-16T13:56:20.133Z,3.10
2022-12-16T13:59:18.447Z,3.20
2022-12-16T14:02:17.119Z,3.10
2022-12-16T14:05:06.771Z,3.40
2022-12-16T14:07:56.214Z,2.90
2022-12-16T14:10:46.241Z,3.00
2022-12-16T14:13:54.922Z,3.20
2022-12-16T14:16:52.944Z,3.00
2022-12-16T14:20:03.793Z,3.10
2022-12-16T14:23:08.442Z,3.20
2022-12-16T14:25:55.089Z,3.00
2022-12-16T14:28:56.107Z,2.80
2022-12-16T14:31:52.812Z,3.10
2022-12-16T14:34:51.222Z,3.00
2022-12-16T14:37:39.841Z,3.40
2022-12-16T14:40:51.221Z,3.20
2022-12-16T14:43:42.634Z,3.00
2022-12-16T14:46:43.967Z,2.90
2022-12-16T14:49:47.085Z,3.20
2022-12-16T14:52:36.887Z,3.10
2022-12-16T14:55:51.009Z,3.10
2022-12-16T14:58:47.491Z,3.30
2022-12-16T15:01:37.568Z,2.80
2022-12-16T15:04:27.926Z,3.00
2022-12-16T15:07:15.508Z,2.70
2022-12-16T15:10:04.900Z,2.60
2022-12-16T15:12:58.687Z,3.30
2022-12-16T15:15:59.842Z,3.10
2022-12-16T15:18:47.966Z,3.20
2022-12-16T15:21:33.740Z,2.80
2022-12-16T15:24:19.442Z,2.80
2022-12-16T15:27:04.838Z,2.80
2022-12-16T15:29:53.152Z,2.50
2022-12-16T15:32:44.531Z,3.00
2022-12-16T15:35:51.192Z,3.00
2022-12-16T15:38:51.427Z,2.70
2022-12-16T15:41:57.049Z,3.20
2022-12-16T15:44:48.384Z,2.50
2022-12-16T15:47:54.638Z,2.60
2022-12-16T15:50:47.832Z,3.20
2022-12-16T15:53:47.243Z,2.70
2022-12-16T15:57:06.007Z,2.50
2022-12-16T16:00:17.386Z,2.40
2022-12-16T16:03:08.251Z,2.50
2022-12-16T16:06:01.014Z,2.60
2022-12-16T16:08:46.497Z,2.60
2022-12-16T16:11:36.004Z,2.50
2022-12-16T16:14:21.691Z,2.80
2022-12-16T16:17:08.476Z,2.40
2022-12-16T16:20:01.591Z,2.40
2022-12-16T16:22:53.818Z,2.20
2022-12-16T16:25:39.781Z,2.40
2022-12-16T16:28:30.350Z,3.10
2022-12-16T16:31:18.914Z,2.70
2022-12-16T16:34:05.145Z,2.80
2022-12-16T16:36:50.897Z,2.80
2022-12-16T16:39:38.023Z,2.60
2022-12-16T16:42:24.801Z,2.30
2022-12-16T16:45:10.642Z,2.70
2022-12-16T16:47:57.758Z,2.40
2022-12-16T16:50:43.521Z,2.70
2022-12-16T16:53:35.469Z,3.30
2022-12-16T16:56:22.672Z,3.10
2022-12-16T16:59:08.539Z,2.60
2022-12-16T17:01:54.560Z,2.60
2022-12-16T17:04:42.300Z,2.40
2022-12-16T17:07:27.957Z,2.80
2022-12-16T17:10:13.519Z,2.60
2022-12-16T17:13:04.499Z,2.70
2022-12-16T17:15:54.338Z,2.60
2022-12-16T17:18:45.574Z,2.50
2022-12-16T17:21:35.310Z,2.40
2022-12-16T17:24:21.329Z,2.20
2022-12-16T17:27:07.251Z,2.40
2022-12-16T17:29:55.778Z,2.70
2022-12-16T17:32:42.078Z,2.30
2022-12-16T17:35:30.218Z,2.90
2022-12-16T17:38:17.214Z,2.30
2022-12-16T17:41:03.125Z,2.50
2022-12-16T17:43:48.745Z,2.60
2022-12-16T17:46:39.609Z,2.40
2022-12-16T17:49:25.558Z,2.50
2022-12-16T17:52:11.263Z,2.80
2022-12-16T17:54:56.814Z,2.60
2022-12-16T17:57:42.550Z,2.40
2022-12-16T18:00:32.842Z,2.20
2022-12-16T18:03:20.764Z,2.30
2022-12-16T18:06:07.759Z,3.30
2022-12-16T18:08:54.284Z,2.40
2022-12-16T18:11:40.123Z,2.30
2022-12-16T18:14:35.429Z,2.70
2022-12-16T18:17:21.152Z,2.60
2022-12-16T18:20:09.691Z,2.40
2022-12-16T18:22:58.801Z,2.40
2022-12-16T18:25:55.710Z,2.30
2022-12-16T18:28:41.788Z,1.90
2022-12-16T18:31:27.525Z,2.30
2022-12-16T18:34:13.465Z,2.40
2022-12-16T18:38:02.097Z,2.20
2022-12-16T18:40:55.445Z,2.40
2022-12-16T18:43:41.422Z,2.20
2022-12-16T18:46:28.330Z,2.60
2022-12-16T18:49:14.404Z,2.50
2022-12-16T18:52:00.627Z,2.30
2022-12-16T18:54:47.300Z,2.30
2022-12-16T18:57:37.848Z,1.90
2022-12-16T19:00:27.560Z,2.30
2022-12-16T19:03:13.659Z,2.50
2022-12-16T19:05:59.557Z,2.30
2022-12-16T19:08:52.776Z,2.30
2022-12-16T19:11:47.201Z,2.30
2022-12-16T19:14:33.172Z,2.10
2022-12-16T19:17:21.100Z,2.20
2022-12-16T19:20:07.298Z,2.70
2022-12-16T19:23:28.278Z,2.20
2022-12-16T19:26:18.858Z,2.40
2022-12-16T19:29:07.028Z,2.40
2022-12-16T19:31:56.092Z,2.70
2022-12-16T19:34:41.725Z,2.60
2022-12-16T19:37:28.599Z,2.80
2022-12-16T19:43:45.333Z,2.90
2022-12-16T19:46:32.792Z,3.50
2022-12-16T19:49:18.536Z,2.90
2022-12-16T19:52:04.183Z,3.10
2022-12-16T19:54:49.612Z,3.30
2022-12-16T19:57:35.330Z,3.00
2022-12-16T20:00:21.568Z,3.10
2022-12-16T20:03:07.234Z,3.50
2022-12-16T20:05:53.194Z,3.40
2022-12-16T20:08:42.542Z,2.90
2022-12-16T20:11:30.104Z,3.00
2022-12-16T20:14:17.010Z,3.30
2022-12-16T20:17:05.073Z,3.60
2022-12-16T20:19:53.918Z,2.90
2022-12-16T20:22:42.020Z,2.80
2022-12-16T20:25:27.887Z,2.70
2022-12-16T20:28:24.913Z,3.50
2022-12-16T20:31:22.159Z,3.00
2022-12-16T20:34:14.644Z,2.70
2022-12-16T20:37:06.045Z,3.10
2022-12-16T20:39:56.903Z,2.90
2022-12-16T20:42:44.721Z,2.90
2022-12-16T20:45:30.591Z,3.40
2022-12-16T20:48:16.371Z,2.90
2022-12-16T20:51:02.113Z,2.40
2022-12-16T20:53:48.585Z,3.10
2022-12-16T20:56:34.709Z,2.90
2022-12-16T20:59:20.200Z,2.50
2022-12-16T21:05:13.886Z,3.00
2022-12-16T21:08:00.444Z,3.00
2022-12-16T21:10:50.107Z,3.10
2022-12-16T21:13:36.564Z,2.70
2022-12-16T21:16:24.170Z,2.40
2022-12-16T21:19:09.991Z,2.90
2022-12-16T21:21:56.585Z,2.60
2022-12-16T21:24:42.667Z,2.90
2022-12-16T21:27:38.474Z,2.90
2022-12-16T21:30:29.645Z,2.70
2022-12-16T21:33:16.385Z,2.40
2022-12-16T21:36:13.066Z,2.70
2022-12-16T21:39:01.242Z,2.40
2022-12-16T21:41:47.234Z,2.80
2022-12-16T21:44:34.646Z,2.50
2022-12-16T21:47:27.859Z,2.50
2022-12-16T21:50:14.098Z,2.70
2022-12-16T21:53:02.128Z,2.20
2022-12-16T21:55:50.292Z,2.30
2022-12-16T21:58:36.734Z,2.50
2022-12-16T22:01:23.482Z,2.60
2022-12-16T22:04:11.602Z,2.40
2022-12-16T22:06:58.594Z,2.50
2022-12-16T22:09:45.088Z,2.40
2022-12-16T22:12:31.012Z,2.40
2022-12-16T22:15:16.750Z,2.50
2022-12-16T22:18:02.821Z,2.60
2022-12-16T22:20:48.570Z,2.20
2022-12-16T22:23:34.330Z,2.70
2022-12-16T22:26:20.410Z,2.40
2022-12-16T22:29:06.776Z,2.40
2022-12-16T22:31:52.548Z,2.50
2022-12-16T22:34:38.842Z,2.40
2022-12-16T22:37:26.675Z,2.60
2022-12-16T22:40:21.478Z,2.10
2022-12-16T22:43:08.061Z,2.30
2022-12-16T22:49:20.730Z,2.40
2022-12-16T22:52:07.569Z,2.90
2022-12-16T22:54:53.502Z,2.40
2022-12-16T22:57:40.584Z,2.50
2022-12-16T23:00:27.387Z,2.80
2022-12-16T23:03:17.314Z,2.70
2022-12-16T23:06:04.774Z,2.50
2022-12-16T23:08:54.854Z,2.40
2022-12-16T23:11:56.597Z,2.40
2022-12-16T23:14:44.642Z,2.50
2022-12-16T23:17:32.190Z,2.70
2022-12-16T23:20:19.093Z,2.80
2022-12-16T23:23:05.459Z,2.90
2022-12-16T23:25:53.885Z,3.20
2022-12-16T23:28:39.702Z,2.80
2022-12-16T23:31:25.993Z,2.80
2022-12-16T23:34:11.881Z,3.20
2022-12-16T23:36:57.555Z,2.90
2022-12-16T23:39:43.077Z,2.80
2022-12-16T23:42:29.407Z,2.80
2022-12-16T23:48:27.759Z,2.70
2022-12-16T23:51:20.698Z,2.50
2022-12-16T23:54:06.850Z,3.10
2022-12-16T23:56:52.662Z,2.80
2022-12-16T23:59:39.561Z,3.60
